AirNav   Everest Fuels
 
 414 users online  

WN92 Sky Meadows Airpark
Spokane, Washington, USA

GOING TO SPOKANE?


FAA INFORMATION EFFECTIVE 18 JUNE 2020

Location

FAA Identifier: WN92
Lat/Long: 47-36-30.6280N 117-10-50.7260W
47-36.510467N 117-10.845433W
47.6085078,-117.1807572
(estimated)
Elevation: 2350 ft. / 716 m (estimated)
Variation: 19E (1985)
From city: 8 miles SE of SPOKANE, WA
Time zone: UTC -7 (UTC -8 during Standard Time)
Zip code: 99016

Airport Operations

Airport use: Private use. Permission required prior to landing
Activation date: 01/1988
Control tower: no
ARTCC: SEATTLE CENTER
FSS: SEATTLE FLIGHT SERVICE STATION
Attendance: UNATNDD
Wind indicator: yes
Segmented circle: no
Lights: ACTVT MIRL RY 16/34 - 122.9.

Airport Communications

WX ASOS at SFF (7 nm NW): 120.55 (509-535-3290)
WX ASOS at GEG (14 nm W): PHONE 509-624-4406
WX AWOS-3PT at COE (18 nm NE): 135.075 (208-772-8215)

Nearby radio navigation aids

VOR radial/distance  VOR name  Freq  Var
COEr217/17.6COEUR D'ALENE VOR/DME108.8019E
GEGr061/18.2SPOKANE VORTAC115.5021E

 
NDB name  Hdg/Dist  Freq  Var  ID
DEER PARK139/23.736516EDPY -.. .--. -.--

Airport Services

Runway Information

Runway 16/34

Dimensions: 3100 x 100 ft. / 945 x 30 m
Surface: turf, in good condition
Runway edge lights: medium intensity
RUNWAY 16  RUNWAY 34
Traffic pattern: leftleft
Displaced threshold: no400 ft.

Airport Ownership and Management from official FAA records

Ownership: Privately-owned
Owner: SKY MEADOWS AIRPARK ASSOC
16616 E 44TH AVE
GREENACRES, WA 99016
Phone (509) 999-1505
OR CALL 509-926-1636 (EVENINGS).
Manager: LARRY HOWARD
16616 E 44TH AVE
GREENACRES, WA 99016
Phone (509) 999-1505
OR 509-926-1636 (EVENINGS).

Airport Operational Statistics

Aircraft based on the field: 7
Single engine airplanes: 7
    

Additional Remarks

FOR CD CTC SPOKANE APCH AT 509-742-2522

Instrument Procedures

There are no published instrument procedures at WN92.

Some nearby airports with instrument procedures:

KSFF - Felts Field Airport (7 nm NW)
KGEG - Spokane International Airport (14 nm W)
KCOE - Coeur d'Alene Airport - Pappy Boyington Field (18 nm NE)
KSKA - Fairchild Air Force Base (19 nm W)
KDEW - Deer Park Airport (24 nm NW)
 
Loc | Ops | Rwys | IFR | FBO | Links
Com | Nav | Svcs | Stats | Notes
Area around WN92 (Sky Meadows Airpark)
 
Road maps at: MapQuest Bing Google
 
Aerial photo
WARNING: Photo may not be current or correct
Aerial photo of WN92 (Sky Meadows Airpark)
Do you have a better or more recent aerial photo of Sky Meadows Airpark that you would like to share? If so, please send us your photo.

 
Sectional chart

 
Airport distance calculator
Flying to Sky Meadows Airpark? Find the distance to fly.

From to WN92

Sunrise and sunset
Times for 11-Jul-2020
 Local
(UTC-7)
 Zulu
(UTC)
Morning civil twilight04:2511:25
Sunrise05:0512:05
Sunset20:4403:44
Evening civil twilight21:2304:23

Current date and time
Zulu (UTC)  11-Jul-2020 10:37:35
Local (UTC-7)  11-Jul-2020 03:37:35
 
METAR
KSFF 
7nm NW 
110953Z AUTO 03003KT 10SM CLR 13/10 A3012 RMK AO2 SLP190 T01330100
KGEG 
14nm W 
110953Z 14003KT 10SM CLR 16/08 A3012 RMK AO2 SLP188 T01610078
KCOE 
18nm NE 
110956Z AUTO 05005KT 10SM CLR 11/09 A3015 RMK AO2 SLP219 T01060089
KSKA 
19nm W 
110958Z AUTO 07005KT 10SM CLR 13/08 A3012 RMK AO2 SLP192 T01340076 $
TAF
KSFF 
7nm NW 
110520Z 1106/1206 VRB03KT P6SM SKC FM111900 20010KT P6SM FEW250 FM112300 22012G20KT P6SM FEW250 FM120400 25012KT P6SM BKN150
KGEG 
14nm W 
110520Z 1106/1206 12003KT P6SM SKC FM111900 20010KT P6SM FEW250 FM112300 22014G22KT P6SM FEW250 FM120500 25012KT P6SM SCT150
KCOE 
18nm NE 
110520Z 1106/1206 09005KT P6SM SKC FM112000 20010KT P6SM FEW250 FM112300 23012G20KT P6SM FEW250 FM120300 22009KT P6SM BKN150
KSKA 
19nm W 
110300Z 1103/1209 VRB06KT 9999 SKC QNH3007INS BECMG 1117/1118 20012G18KT 9999 FEW250 QNH2991INS BECMG 1200/1201 23009KT 9999 SCT200 QNH2988INS TX32/1123Z TN12/1112Z
NOTAMs
Click for the latest NOTAMs
NOTAMs are issued by the DoD/FAA and will open in a separate window not controlled by AirNav.

 

 
 

Would you like to see your business listed on this page?

 If your business provides an interesting product or service to pilots, flight crews, aircraft, or users of the Sky Meadows Airpark, you should consider listing it here.  To start the listing process, click on the button below
 
Add a business
 

Other Pages about Sky Meadows Airpark

Update a link
 
Copyright © AirNav, LLC. All rights reserved. Privacy Policy  Contact